Time;durP1;ratioP1;P1;durP2;ratioP2;P2;SDS_P1;SDS_P2;PMS_P1;PMS_P2;Temp;Humidity;BMP_temperature;BMP_pressure;BME280_temperature;BME280_humidity;BME280_pressure;Samples;Min_cycle;Max_cycle;Signal;HPM_P1;HPM_P2
2023/03/07 00:02:21;;;;;;;2.22;1.02;;;24.00;54.00;;;;;;5133214;23;20020;-44
2023/03/07 00:04:45;;;;;;;1.63;1.08;;;24.00;54.30;;;;;;5141958;23;20339;-44
2023/03/07 00:07:07;;;;;;;2.17;1.17;;;24.10;54.10;;;;;;5141816;23;20047;-45
2023/03/07 00:09:30;;;;;;;2.80;1.50;;;24.20;55.20;;;;;;5134354;23;20155;-44
2023/03/07 00:11:53;;;;;;;2.95;1.50;;;24.10;55.20;;;;;;5141364;23;20016;-44
2023/03/07 00:14:15;;;;;;;2.92;1.30;;;24.10;54.70;;;;;;5140147;23;20431;-44
2023/03/07 00:16:38;;;;;;;2.83;1.63;;;24.00;54.40;;;;;;5142500;23;20104;-45
2023/03/07 00:19:00;;;;;;;2.33;1.20;;;24.00;54.30;;;;;;5132543;23;20017;-44
2023/03/07 00:21:23;;;;;;;3.08;1.23;;;24.00;54.20;;;;;;5142595;23;20531;-46
2023/03/07 00:23:46;;;;;;;2.72;1.38;;;24.10;54.30;;;;;;5140978;23;20359;-45
2023/03/07 00:26:13;;;;;;;2.53;1.27;;;24.20;55.60;;;;;;5140582;23;20017;-45
2023/03/07 00:28:36;;;;;;;2.35;1.20;;;24.20;55.40;;;;;;5141442;23;20107;-44
2023/03/07 00:31:05;;;;;;;2.78;1.35;;;24.10;55.20;;;;;;5134585;23;20016;-50
2023/03/07 00:33:28;;;;;;;2.22;1.20;;;24.00;54.60;;;;;;5131353;23;20012;-49
2023/03/07 00:36:06;;;;;;;2.13;1.23;;;24.00;54.50;;;;;;5143831;23;20024;-45
2023/03/07 00:38:31;;;;;;;2.75;1.30;;;24.10;54.40;;;;;;5145109;23;20016;-44
2023/03/07 00:41:04;;;;;;;2.25;1.00;;;24.10;54.50;;;;;;5133638;23;20059;-48
2023/03/07 00:43:27;;;;;;;2.03;1.10;;;24.20;55.80;;;;;;5141931;23;20412;-46
2023/03/07 00:45:49;;;;;;;2.33;1.13;;;24.20;55.00;;;;;;5141927;23;20027;-51
2023/03/07 00:48:12;;;;;;;1.45;1.00;;;24.10;54.90;;;;;;5142114;23;20051;-48
2023/03/07 00:50:34;;;;;;;1.88;1.10;;;24.00;54.80;;;;;;5143289;23;20017;-46
2023/03/07 00:52:57;;;;;;;2.05;1.10;;;24.00;54.60;;;;;;5141212;23;20095;-47
2023/03/07 00:55:19;;;;;;;1.77;1.10;;;24.00;54.40;;;;;;5143777;23;20013;-48
2023/03/07 00:57:41;;;;;;;1.75;0.88;;;24.10;54.30;;;;;;5142612;23;20020;-51
2023/03/07 01:00:04;;;;;;;2.28;0.95;;;24.20;54.30;;;;;;5144479;23;20354;-48
2023/03/07 01:02:27;;;;;;;1.35;0.90;;;24.20;55.20;;;;;;5144889;23;20009;-49
2023/03/07 01:04:49;;;;;;;1.88;1.15;;;24.20;55.00;;;;;;5142552;23;20043;-47
2023/03/07 01:07:12;;;;;;;1.63;1.08;;;24.10;54.50;;;;;;5144552;23;20087;-51
2023/03/07 01:09:34;;;;;;;1.75;0.93;;;24.00;54.20;;;;;;5144936;23;20013;-50
2023/03/07 01:11:57;;;;;;;3.95;1.20;;;24.00;54.30;;;;;;5144762;23;20447;-46
2023/03/07 01:14:19;;;;;;;2.13;1.00;;;24.10;54.10;;;;;;5135744;23;20008;-47
2023/03/07 01:16:41;;;;;;;2.58;1.05;;;24.20;54.10;;;;;;5144534;23;20526;-48
2023/03/07 01:19:07;;;;;;;1.30;0.93;;;24.30;54.00;;;;;;5144218;23;20063;-45
2023/03/07 01:21:36;;;;;;;1.60;1.10;;;24.30;54.40;;;;;;5144494;23;20032;-53
2023/03/07 01:23:58;;;;;;;1.88;0.93;;;24.20;54.40;;;;;;5134247;23;20012;-45
2023/03/07 01:26:23;;;;;;;1.02;0.73;;;24.10;53.80;;;;;;5144572;23;20348;-46
2023/03/07 01:28:46;;;;;;;1.08;0.82;;;24.00;53.80;;;;;;5143887;23;20024;-43
2023/03/07 01:31:09;;;;;;;1.73;0.95;;;24.00;53.90;;;;;;5144462;23;20023;-48
2023/03/07 01:33:32;;;;;;;1.25;0.80;;;24.00;53.60;;;;;;5143778;23;21018;-50
2023/03/07 01:35:54;;;;;;;1.00;0.60;;;24.10;53.60;;;;;;5142599;23;20042;-44
2023/03/07 01:38:16;;;;;;;1.25;0.80;;;24.10;54.20;;;;;;5144380;23;20085;-50
2023/03/07 01:40:39;;;;;;;1.00;0.70;;;24.20;54.20;;;;;;5142074;23;20064;-45
2023/03/07 01:43:24;;;;;;;1.38;0.90;;;24.10;54.10;;;;;;5144959;23;20012;-44
2023/03/07 01:45:50;;;;;;;2.22;1.00;;;24.00;53.90;;;;;;5143741;23;20012;-49
2023/03/07 01:48:12;;;;;;;1.00;0.60;;;23.90;53.90;;;;;;5142335;23;20091;-43
2023/03/07 01:50:35;;;;;;;0.82;0.60;;;23.90;53.80;;;;;;5142242;23;20016;-43
2023/03/07 01:52:59;;;;;;;2.53;0.80;;;24.00;54.00;;;;;;5142339;23;20016;-43
2023/03/07 01:55:27;;;;;;;1.30;0.60;;;24.10;54.20;;;;;;5144103;23;20032;-46
2023/03/07 01:57:51;;;;;;;1.40;0.80;;;24.10;54.90;;;;;;5143798;23;20069;-46
2023/03/07 02:00:22;;;;;;;1.42;0.93;;;24.10;54.60;;;;;;5141403;23;20027;-44
2023/03/07 02:02:49;;;;;;;1.10;0.70;;;24.00;54.10;;;;;;5132033;23;20017;-47
2023/03/07 02:05:19;;;;;;;0.82;0.50;;;23.90;54.30;;;;;;5143133;23;20394;-44
2023/03/07 02:07:50;;;;;;;0.60;0.50;;;24.00;54.10;;;;;;5137079;23;20079;-47
2023/03/07 02:10:14;;;;;;;0.77;0.70;;;24.00;53.80;;;;;;5143216;23;20017;-48
2023/03/07 02:12:38;;;;;;;1.00;0.70;;;24.10;53.90;;;;;;5142188;23;20466;-47
2023/03/07 02:15:01;;;;;;;1.83;0.75;;;24.20;54.70;;;;;;5141287;23;20024;-47
2023/03/07 02:17:24;;;;;;;0.95;0.63;;;24.10;53.90;;;;;;5141723;23;20012;-44
2023/03/07 02:20:10;;;;;;;1.17;0.70;;;24.00;53.90;;;;;;5141784;23;20024;-45
2023/03/07 02:22:32;;;;;;;1.38;0.80;;;24.00;54.10;;;;;;5139593;23;20020;-46
2023/03/07 02:25:22;;;;;;;0.82;0.60;;;24.00;54.30;;;;;;5140289;23;20060;-49
2023/03/07 02:27:46;;;;;;;1.30;0.60;;;24.20;54.30;;;;;;5133053;23;20012;-51
2023/03/07 02:30:09;;;;;;;2.85;0.80;;;24.40;54.30;;;;;;5143826;23;20366;-49
2023/03/07 02:32:32;;;;;;;1.80;0.60;;;24.40;54.30;;;;;;5143268;23;20048;-48
2023/03/07 02:34:54;;;;;;;0.65;0.40;;;24.30;53.70;;;;;;5142463;23;20009;-48
2023/03/07 02:37:33;;;;;;;0.95;0.52;;;24.20;53.50;;;;;;5133478;23;20016;-47
2023/03/07 02:39:59;;;;;;;1.33;0.52;;;24.10;53.80;;;;;;5141932;23;20510;-49
2023/03/07 02:42:28;;;;;;;0.90;0.50;;;24.10;54.30;;;;;;5142087;23;20035;-50
2023/03/07 02:44:59;;;;;;;3.45;0.52;;;24.20;54.50;;;;;;5137762;23;20461;-45
2023/03/07 02:47:21;;;;;;;1.52;0.90;;;24.40;54.80;;;;;;5132832;23;20020;-43
2023/03/07 02:49:43;;;;;;;1.50;0.50;;;24.50;54.50;;;;;;5141426;23;20015;-45
2023/03/07 02:52:06;;;;;;;1.08;0.68;;;24.40;53.80;;;;;;5140973;23;20062;-47
2023/03/07 02:54:28;;;;;;;1.38;0.70;;;24.30;53.50;;;;;;5142104;23;20044;-44
2023/03/07 02:56:51;;;;;;;1.55;0.90;;;24.30;53.50;;;;;;5140432;23;20020;-46
2023/03/07 02:59:13;;;;;;;1.17;0.50;;;24.20;53.60;;;;;;5140695;23;20016;-50
2023/03/07 03:01:36;;;;;;;0.82;0.60;;;24.30;53.60;;;;;;5138640;23;20021;-47
2023/03/07 03:03:59;;;;;;;2.05;0.80;;;24.50;53.60;;;;;;5140707;23;20139;-49
2023/03/07 03:06:21;;;;;;;1.85;0.70;;;24.60;54.10;;;;;;5140275;23;20359;-47
2023/03/07 03:08:44;;;;;;;1.35;0.70;;;24.60;53.50;;;;;;5139611;23;20059;-47
2023/03/07 03:11:06;;;;;;;1.10;0.65;;;24.40;53.20;;;;;;5141623;23;20211;-44
2023/03/07 03:13:29;;;;;;;1.67;0.73;;;24.30;53.10;;;;;;5142057;23;20400;-48
2023/03/07 03:15:56;;;;;;;1.67;0.50;;;24.30;53.50;;;;;;5142348;23;20020;-50
2023/03/07 03:18:18;;;;;;;0.65;0.50;;;24.40;53.90;;;;;;5141750;23;20009;-46
2023/03/07 03:20:41;;;;;;;1.35;0.60;;;24.50;53.80;;;;;;5140245;23;20119;-44
2023/03/07 03:23:04;;;;;;;5.80;0.55;;;24.70;53.90;;;;;;5142520;23;20012;-49
2023/03/07 03:25:26;;;;;;;4.13;1.00;;;24.70;53.20;;;;;;5139605;23;20021;-44
2023/03/07 03:27:49;;;;;;;0.70;0.55;;;24.50;53.60;;;;;;5139902;23;20008;-52
2023/03/07 03:30:13;;;;;;;1.70;0.60;;;24.40;52.70;;;;;;5135770;23;20021;-52
2023/03/07 03:32:37;;;;;;;0.73;0.50;;;24.40;53.20;;;;;;5128811;23;20024;-46
2023/03/07 03:35:00;;;;;;;2.30;0.60;;;24.40;53.30;;;;;;5143426;23;20020;-47
2023/03/07 03:37:22;;;;;;;0.90;0.60;;;24.50;53.30;;;;;;5142716;23;20346;-46
2023/03/07 03:39:45;;;;;;;0.77;0.50;;;24.70;54.10;;;;;;5139425;23;20455;-47
2023/03/07 03:42:07;;;;;;;1.45;0.70;;;24.70;53.20;;;;;;5139681;23;20008;-47
2023/03/07 03:44:30;;;;;;;3.25;0.65;;;24.60;52.80;;;;;;5140514;23;20013;-43
2023/03/07 03:46:52;;;;;;;3.65;0.90;;;24.50;52.50;;;;;;5143101;23;20478;-44
2023/03/07 03:49:15;;;;;;;2.78;0.90;;;24.40;52.60;;;;;;5138598;23;20026;-44
2023/03/07 03:51:38;;;;;;;2.10;0.60;;;24.40;52.90;;;;;;5132627;23;20013;-46
2023/03/07 03:54:00;;;;;;;2.33;0.68;;;24.50;53.20;;;;;;5143208;23;20028;-43
2023/03/07 03:56:24;;;;;;;2.58;0.80;;;24.60;53.40;;;;;;5142629;23;20017;-43
2023/03/07 03:58:50;;;;;;;1.92;0.60;;;24.70;53.70;;;;;;5141903;23;20417;-45
2023/03/07 04:01:12;;;;;;;1.83;0.80;;;24.70;52.90;;;;;;5136468;23;20031;-45
2023/03/07 04:03:44;;;;;;;1.23;0.52;;;24.60;52.40;;;;;;5145486;23;20012;-50
2023/03/07 04:06:15;;;;;;;1.00;0.60;;;24.60;52.30;;;;;;5144963;23;20020;-45
2023/03/07 04:08:39;;;;;;;0.45;0.32;;;24.50;52.30;;;;;;5144095;23;20012;-46
2023/03/07 04:11:01;;;;;;;0.73;0.52;;;24.50;52.60;;;;;;5144182;23;20017;-46
2023/03/07 04:13:24;;;;;;;0.88;0.50;;;24.60;52.50;;;;;;5143766;23;20044;-48
2023/03/07 04:15:47;;;;;;;2.15;0.60;;;24.90;52.60;;;;;;5136717;23;20013;-48
2023/03/07 04:18:09;;;;;;;0.30;0.30;;;25.00;52.40;;;;;;5139345;23;20043;-46
2023/03/07 04:20:31;;;;;;;1.60;0.60;;;24.90;52.00;;;;;;5140456;23;20024;-46
2023/03/07 04:22:54;;;;;;;0.98;0.60;;;24.80;52.00;;;;;;5139376;23;20040;-51
2023/03/07 04:25:16;;;;;;;1.35;0.70;;;24.80;52.00;;;;;;5140159;23;20017;-45
2023/03/07 04:27:39;;;;;;;0.82;0.43;;;24.70;52.00;;;;;;5140086;23;20411;-51
2023/03/07 04:30:01;;;;;;;2.95;0.85;;;24.70;52.40;;;;;;5140030;23;20020;-47
2023/03/07 04:32:23;;;;;;;1.50;0.73;;;24.80;52.20;;;;;;5139186;23;20021;-47
2023/03/07 04:34:46;;;;;;;2.38;1.15;;;25.10;52.20;;;;;;5138651;23;20534;-50
2023/03/07 04:37:08;;;;;;;1.13;0.70;;;25.30;51.90;;;;;;5138886;23;20223;-48
2023/03/07 04:39:30;;;;;;;1.75;0.85;;;25.20;51.40;;;;;;5138985;23;20058;-47
2023/03/07 04:41:53;;;;;;;1.70;0.70;;;25.20;51.10;;;;;;5139225;23;20388;-47
2023/03/07 04:44:16;;;;;;;2.22;0.73;;;25.10;51.10;;;;;;5140010;23;20015;-52
2023/03/07 04:46:38;;;;;;;1.20;0.50;;;25.00;51.00;;;;;;5140508;23;20316;-52
2023/03/07 04:49:01;;;;;;;1.40;0.90;;;24.90;51.10;;;;;;5137938;23;20020;-49
2023/03/07 04:51:23;;;;;;;1.50;0.85;;;24.90;51.10;;;;;;5140105;23;20023;-50
2023/03/07 04:53:46;;;;;;;3.35;0.80;;;24.80;51.00;;;;;;5139406;23;20035;-49
2023/03/07 04:56:09;;;;;;;2.17;1.30;;;24.80;51.40;;;;;;5139028;23;20020;-45
2023/03/07 04:58:33;;;;;;;1.10;0.70;;;25.00;51.50;;;;;;5140122;23;20016;-47
2023/03/07 05:00:58;;;;;;;2.85;1.35;;;25.30;51.60;;;;;;5139603;23;20032;-46
2023/03/07 05:03:22;;;;;;;2.58;0.90;;;25.50;50.90;;;;;;5137478;23;20028;-44
2023/03/07 05:05:44;;;;;;;1.95;1.00;;;25.50;50.30;;;;;;5138671;23;20016;-44
2023/03/07 05:08:07;;;;;;;2.13;1.02;;;25.40;50.00;;;;;;5130403;23;20024;-45
2023/03/07 05:10:31;;;;;;;2.10;1.15;;;25.20;50.10;;;;;;5140232;23;20091;-44
2023/03/07 05:12:53;;;;;;;2.67;1.10;;;25.10;49.90;;;;;;5139569;23;20087;-44
2023/03/07 05:15:15;;;;;;;2.63;0.93;;;25.10;50.40;;;;;;5139419;23;20071;-47
2023/03/07 05:17:38;;;;;;;1.88;1.02;;;25.20;51.10;;;;;;5129489;23;20095;-52
2023/03/07 05:20:00;;;;;;;2.33;1.20;;;25.40;51.30;;;;;;5131075;23;20291;-49
2023/03/07 05:22:23;;;;;;;2.13;1.20;;;25.80;52.20;;;;;;5138637;23;20012;-43
2023/03/07 05:24:45;;;;;;;2.35;1.13;;;25.90;51.00;;;;;;5140518;23;20100;-45
2023/03/07 05:27:07;;;;;;;1.98;1.00;;;25.70;50.40;;;;;;5137664;23;20023;-48
2023/03/07 05:29:30;;;;;;;3.38;1.08;;;25.70;50.20;;;;;;5140315;23;20055;-45
2023/03/07 05:31:52;;;;;;;1.95;1.17;;;25.50;50.10;;;;;;5138807;23;20036;-49
2023/03/07 05:34:15;;;;;;;1.65;0.90;;;25.50;50.30;;;;;;5137457;23;20629;-46
2023/03/07 05:36:37;;;;;;;1.77;1.08;;;25.40;50.30;;;;;;5130576;23;20091;-47
2023/03/07 05:39:00;;;;;;;1.95;1.13;;;25.40;50.80;;;;;;5137799;23;20233;-48
2023/03/07 05:41:23;;;;;;;4.85;1.23;;;25.70;51.20;;;;;;5138335;23;20025;-50
2023/03/07 05:43:46;;;;;;;4.63;2.08;;;26.00;51.80;;;;;;5129130;23;20035;-47
2023/03/07 05:46:08;;;;;;;4.43;2.28;;;26.20;51.10;;;;;;5138148;23;20024;-51
2023/03/07 05:48:31;;;;;;;5.32;2.95;;;26.10;50.60;;;;;;5129699;23;20107;-45
2023/03/07 05:50:53;;;;;;;5.60;2.25;;;26.00;50.20;;;;;;5136287;23;20027;-45
2023/03/07 05:53:16;;;;;;;3.03;1.67;;;25.90;50.10;;;;;;5124268;23;20516;-46
2023/03/07 05:55:38;;;;;;;2.72;1.77;;;25.90;50.10;;;;;;5132128;23;20013;-47
2023/03/07 05:58:00;;;;;;;4.15;1.80;;;25.80;50.20;;;;;;5138048;23;20024;-46
2023/03/07 06:00:23;;;;;;;2.75;1.67;;;25.90;50.10;;;;;;5136389;23;20021;-46
2023/03/07 06:02:46;;;;;;;3.23;1.83;;;26.00;50.40;;;;;;5128229;23;20012;-45
2023/03/07 06:05:09;;;;;;;9.10;2.03;;;26.20;50.70;;;;;;5136342;23;20254;-48
2023/03/07 06:07:31;;;;;;;3.08;1.70;;;26.50;51.50;;;;;;5137532;23;20519;-44
2023/03/07 06:09:54;;;;;;;2.30;1.33;;;26.60;50.20;;;;;;5135246;23;20031;-45
2023/03/07 06:12:16;;;;;;;6.43;1.70;;;26.60;49.60;;;;;;5136326;23;20823;-45
2023/03/07 06:14:38;;;;;;;4.85;1.38;;;26.60;49.20;;;;;;5137831;23;20463;-50
2023/03/07 06:17:02;;;;;;;3.38;1.30;;;26.50;48.90;;;;;;5136700;23;20221;-46
2023/03/07 06:19:24;;;;;;;3.67;1.50;;;26.50;48.80;;;;;;5134700;23;20025;-49
2023/03/07 06:21:47;;;;;;;2.90;1.17;;;26.50;48.70;;;;;;5137356;23;20020;-48
2023/03/07 06:24:09;;;;;;;2.05;1.20;;;26.50;48.60;;;;;;5134593;23;20051;-45
2023/03/07 06:26:32;;;;;;;5.97;1.75;;;26.60;49.00;;;;;;5135005;23;20020;-45
2023/03/07 06:28:54;;;;;;;2.03;1.13;;;26.70;49.30;;;;;;5134061;23;20320;-45
2023/03/07 06:31:18;;;;;;;5.25;2.05;;;27.00;50.80;;;;;;5136012;23;20048;-53
2023/03/07 06:33:41;;;;;;;14.32;6.53;;;27.20;49.70;;;;;;5137262;23;20409;-45
2023/03/07 06:36:12;;;;;;;23.35;11.52;;;27.10;48.80;;;;;;5141030;23;20388;-48
2023/03/07 06:38:34;;;;;;;29.75;17.65;;;27.10;48.50;;;;;;5141568;23;20017;-47
2023/03/07 06:40:57;;;;;;;28.73;16.98;;;27.00;48.20;;;;;;5142507;23;20074;-49
2023/03/07 06:43:19;;;;;;;27.85;16.02;;;26.90;48.00;;;;;;5142736;23;20095;-47
2023/03/07 06:45:42;;;;;;;22.60;14.05;;;26.90;47.90;;;;;;5143409;23;20352;-47
2023/03/07 06:48:04;;;;;;;22.42;13.25;;;26.90;47.80;;;;;;5142885;23;20012;-48
2023/03/07 06:50:27;;;;;;;19.30;11.27;;;26.80;47.60;;;;;;5141948;23;20367;-51
2023/03/07 06:52:50;;;;;;;18.98;11.13;;;26.80;47.80;;;;;;5142081;23;20016;-50
2023/03/07 06:55:13;;;;;;;14.75;9.07;;;26.80;47.50;;;;;;5141323;23;20020;-49
2023/03/07 06:57:35;;;;;;;13.10;8.85;;;26.80;47.60;;;;;;5142603;23;20047;-50
2023/03/07 06:59:58;;;;;;;11.57;7.73;;;26.80;48.00;;;;;;5138046;23;20398;-50
2023/03/07 07:02:20;;;;;;;12.48;7.45;;;27.00;48.30;;;;;;5138594;23;20013;-46
2023/03/07 07:04:43;;;;;;;13.73;7.70;;;27.20;49.90;;;;;;5142335;23;20055;-48
2023/03/07 07:07:08;;;;;;;9.05;5.78;;;27.20;48.50;;;;;;5128355;23;20024;-47
2023/03/07 07:09:30;;;;;;;8.50;5.93;;;27.20;48.10;;;;;;5136968;23;20027;-44
2023/03/07 07:11:53;;;;;;;9.38;5.28;;;27.00;47.70;;;;;;5136524;23;20534;-51
2023/03/07 07:14:15;;;;;;;7.82;5.22;;;26.90;47.70;;;;;;5136068;23;20012;-51
2023/03/07 07:16:37;;;;;;;8.23;5.15;;;26.80;47.70;;;;;;5137102;23;20500;-47
2023/03/07 07:19:00;;;;;;;6.88;4.10;;;26.70;47.90;;;;;;5137768;23;20521;-43
2023/03/07 07:21:22;;;;;;;5.30;4.00;;;26.60;47.80;;;;;;5127324;23;20087;-49
2023/03/07 07:23:45;;;;;;;5.85;4.25;;;26.50;48.10;;;;;;5136178;23;20025;-46
2023/03/07 07:26:08;;;;;;;7.68;3.47;;;26.40;48.40;;;;;;5139459;23;20078;-46
2023/03/07 07:28:30;;;;;;;5.82;3.28;;;26.30;48.70;;;;;;5138838;23;20300;-43
2023/03/07 07:30:52;;;;;;;5.00;3.05;;;26.30;49.50;;;;;;5137010;23;20075;-45
2023/03/07 07:33:15;;;;;;;5.65;3.05;;;26.40;49.70;;;;;;5136428;23;20022;-48
2023/03/07 07:35:38;;;;;;;4.53;2.93;;;26.50;50.60;;;;;;5131577;23;20040;-44
2023/03/07 07:38:00;;;;;;;4.30;2.40;;;26.30;49.80;;;;;;5139321;23;20016;-50
2023/03/07 07:40:22;;;;;;;3.67;2.45;;;26.20;49.60;;;;;;5139382;23;20024;-43
2023/03/07 07:42:53;;;;;;;4.20;2.30;;;26.10;49.40;;;;;;5138617;23;20541;-46
2023/03/07 07:45:15;;;;;;;4.03;2.65;;;26.00;49.40;;;;;;5141368;23;20020;-49
2023/03/07 07:47:38;;;;;;;5.15;2.35;;;25.90;49.60;;;;;;5140696;23;20466;-46
2023/03/07 07:50:00;;;;;;;4.43;2.60;;;25.80;49.90;;;;;;5140312;23;20017;-49
2023/03/07 07:52:22;;;;;;;4.55;2.10;;;25.70;49.90;;;;;;5143608;23;20353;-46
2023/03/07 07:54:45;;;;;;;3.30;1.75;;;25.60;50.10;;;;;;5143318;23;20231;-49
2023/03/07 07:57:07;;;;;;;2.40;1.65;;;25.60;50.60;;;;;;5142192;23;20020;-48
2023/03/07 07:59:32;;;;;;;4.13;1.92;;;25.70;51.30;;;;;;5144558;23;20102;-45
2023/03/07 08:01:55;;;;;;;3.65;1.85;;;25.70;52.50;;;;;;5143747;23;20066;-52
2023/03/07 08:04:18;;;;;;;2.70;1.58;;;25.60;51.40;;;;;;5144454;23;20017;-45
2023/03/07 08:06:43;;;;;;;3.20;1.60;;;25.50;51.00;;;;;;5143076;23;20021;-48
2023/03/07 08:09:05;;;;;;;3.00;1.90;;;25.40;50.90;;;;;;5137795;23;20020;-48
2023/03/07 08:11:28;;;;;;;2.28;1.52;;;25.30;50.90;;;;;;5145235;23;20469;-46
2023/03/07 08:13:50;;;;;;;3.22;1.70;;;25.30;50.80;;;;;;5146060;23;20116;-46
2023/03/07 08:16:23;;;;;;;2.55;1.80;;;25.20;50.80;;;;;;5141575;23;20004;-49
2023/03/07 08:18:54;;;;;;;2.53;1.58;;;25.10;51.20;;;;;;5145743;23;20155;-46
2023/03/07 08:21:17;;;;;;;3.88;1.83;;;25.10;51.50;;;;;;5139350;23;20028;-47
2023/03/07 08:23:39;;;;;;;3.70;1.95;;;25.20;52.40;;;;;;5146460;23;20125;-46
2023/03/07 08:26:04;;;;;;;3.97;1.92;;;25.20;53.00;;;;;;5146857;23;20024;-48
2023/03/07 08:28:26;;;;;;;2.58;1.58;;;25.10;52.30;;;;;;5144930;23;20017;-50
2023/03/07 08:30:49;;;;;;;2.72;1.67;;;25.10;51.80;;;;;;5147213;23;20020;-45
2023/03/07 08:33:11;;;;;;;2.03;1.05;;;25.00;51.50;;;;;;5144174;23;20016;-51
2023/03/07 08:35:34;;;;;;;2.05;1.20;;;24.90;51.30;;;;;;5139676;23;20100;-44
2023/03/07 08:38:00;;;;;;;2.35;1.70;;;24.80;51.80;;;;;;5139716;23;20017;-47
2023/03/07 08:40:23;;;;;;;2.20;1.40;;;24.80;51.90;;;;;;5130192;23;20436;-44
2023/03/07 08:42:46;;;;;;;2.55;1.27;;;24.80;52.40;;;;;;5139707;23;20426;-44
2023/03/07 08:45:09;;;;;;;2.35;1.20;;;24.90;54.30;;;;;;5140297;23;20121;-46
2023/03/07 08:47:31;;;;;;;2.27;1.60;;;24.90;53.30;;;;;;5137238;23;20044;-44
2023/03/07 08:49:54;;;;;;;2.33;1.35;;;24.80;52.50;;;;;;5139507;23;20577;-44
2023/03/07 08:52:16;;;;;;;2.83;1.67;;;24.70;52.20;;;;;;5139434;23;20028;-45
2023/03/07 08:54:39;;;;;;;2.53;1.58;;;24.70;52.00;;;;;;5139491;23;20020;-45
2023/03/07 08:57:01;;;;;;;2.78;1.20;;;24.60;52.20;;;;;;5139539;23;20020;-47
2023/03/07 08:59:24;;;;;;;2.65;1.20;;;24.60;52.50;;;;;;5137280;23;20016;-47
2023/03/07 09:01:46;;;;;;;2.30;1.30;;;24.60;52.70;;;;;;5137850;23;20588;-49
2023/03/07 09:04:09;;;;;;;1.67;1.25;;;24.60;53.50;;;;;;5139182;23;20017;-46
2023/03/07 09:06:31;;;;;;;2.75;1.30;;;24.60;54.20;;;;;;5139312;23;20526;-48
2023/03/07 09:08:54;;;;;;;1.88;1.23;;;24.60;53.20;;;;;;5138469;23;20009;-47
2023/03/07 09:11:20;;;;;;;2.47;1.40;;;24.60;52.80;;;;;;5139797;23;20403;-43
2023/03/07 09:13:43;;;;;;;2.47;1.40;;;24.50;52.40;;;;;;5139294;23;20094;-45
2023/03/07 09:16:06;;;;;;;2.22;1.40;;;24.40;52.50;;;;;;5127470;23;20727;-47
2023/03/07 09:18:29;;;;;;;2.78;1.50;;;24.40;52.80;;;;;;5137714;23;20020;-44
2023/03/07 09:20:51;;;;;;;2.45;1.70;;;24.40;53.20;;;;;;5140031;23;20039;-44
2023/03/07 09:23:13;;;;;;;3.08;1.40;;;24.50;54.10;;;;;;5139900;23;20024;-46
2023/03/07 09:25:36;;;;;;;3.03;1.77;;;24.40;54.90;;;;;;5136803;23;20062;-45
2023/03/07 09:27:59;;;;;;;2.53;1.30;;;24.40;54.00;;;;;;5139828;23;20076;-48
2023/03/07 09:30:21;;;;;;;2.50;1.38;;;24.40;53.70;;;;;;5138661;23;20426;-45
2023/03/07 09:32:44;;;;;;;2.10;1.40;;;24.30;53.40;;;;;;5138844;23;20041;-49
2023/03/07 09:35:09;;;;;;;2.37;1.50;;;24.20;53.30;;;;;;5131657;23;20739;-47
2023/03/07 09:37:31;;;;;;;2.97;1.60;;;24.20;53.70;;;;;;5139678;23;20017;-45
2023/03/07 09:39:53;;;;;;;2.10;1.50;;;24.20;54.10;;;;;;5139322;23;20083;-48
2023/03/07 09:42:33;;;;;;;2.80;1.45;;;24.20;54.80;;;;;;5139314;23;20013;-47
2023/03/07 09:45:18;;;;;;;3.17;1.60;;;24.30;55.80;;;;;;5131573;23;20107;-51
2023/03/07 09:47:48;;;;;;;2.35;1.30;;;24.20;54.70;;;;;;5138079;23;20481;-45
2023/03/07 09:50:38;;;;;;;2.95;1.80;;;24.10;54.20;;;;;;5138031;23;20040;-44
2023/03/07 09:53:02;;;;;;;1.83;1.17;;;24.10;54.20;;;;;;5137528;23;20056;-49
2023/03/07 09:55:26;;;;;;;2.13;1.50;;;24.00;54.10;;;;;;5138678;23;20012;-48
2023/03/07 09:57:50;;;;;;;;;;;24.00;54.50;;;;;;5138793;23;20023;-44
2023/03/07 10:00:41;;;;;;;3.03;1.38;;;24.10;55.10;;;;;;5131263;23;19970;-49
2023/03/07 10:03:12;;;;;;;2.97;1.52;;;24.10;56.80;;;;;;5126387;23;20016;-50
2023/03/07 10:05:49;;;;;;;2.63;1.25;;;24.10;55.60;;;;;;5139042;23;20013;-49
2023/03/07 10:08:18;;;;;;;3.03;1.30;;;24.10;55.00;;;;;;5138535;23;20284;-50
2023/03/07 10:10:47;;;;;;;3.58;1.83;;;24.00;54.70;;;;;;5137385;23;20127;-45
2023/03/07 10:13:09;;;;;;;2.40;1.42;;;23.90;54.60;;;;;;5138666;23;20150;-46
2023/03/07 10:15:49;;;;;;;3.28;1.73;;;23.90;54.80;;;;;;5129768;23;20521;-48
2023/03/07 10:18:26;;;;;;;2.47;1.40;;;23.90;55.10;;;;;;5138517;23;20059;-50
2023/03/07 10:20:57;;;;;;;2.55;1.38;;;24.00;56.00;;;;;;5138567;23;20024;-46
2023/03/07 10:23:40;;;;;;;2.42;1.30;;;24.00;56.90;;;;;;5138809;23;20092;-48
2023/03/07 10:26:13;;;;;;;3.03;1.67;;;24.00;55.80;;;;;;5138756;23;20023;-45
2023/03/07 10:28:39;;;;;;;2.70;1.60;;;23.90;55.30;;;;;;5138906;23;20453;-46
2023/03/07 10:31:10;;;;;;;2.47;1.50;;;23.80;55.00;;;;;;5138580;23;20028;-50
2023/03/07 10:33:34;;;;;;;4.70;1.77;;;23.80;55.10;;;;;;5138570;23;20362;-48
2023/03/07 10:36:08;;;;;;;2.65;1.73;;;23.70;55.50;;;;;;5137194;23;20020;-48
2023/03/07 10:38:51;;;;;;;3.10;1.65;;;23.80;56.40;;;;;;5138426;23;20016;-47
2023/03/07 10:41:20;;;;;;;4.25;1.80;;;23.80;57.80;;;;;;5133596;23;20094;-45
2023/03/07 10:43:44;;;;;;;3.28;1.70;;;23.80;56.90;;;;;;5139791;23;20038;-47
2023/03/07 10:46:09;;;;;;;2.83;1.80;;;23.80;56.00;;;;;;5138860;23;20012;-47
2023/03/07 10:48:32;;;;;;;2.63;1.67;;;23.70;55.50;;;;;;5135813;23;20481;-48
2023/03/07 10:51:23;;;;;;;2.17;1.30;;;23.60;55.40;;;;;;5128033;23;20016;-48
2023/03/07 10:53:46;;;;;;;2.95;1.75;;;23.60;55.50;;;;;;5124071;23;20023;-49
2023/03/07 10:56:14;;;;;;;2.60;1.58;;;23.60;55.80;;;;;;5139606;23;20391;-46
2023/03/07 10:58:37;;;;;;;2.72;1.60;;;23.60;56.50;;;;;;5138447;23;20016;-46
2023/03/07 11:01:08;;;;;;;2.75;1.70;;;23.70;57.20;;;;;;5129234;23;20479;-48
2023/03/07 11:03:33;;;;;;;3.25;2.00;;;23.70;57.50;;;;;;5136764;23;20100;-49
2023/03/07 11:05:56;;;;;;;2.83;1.80;;;23.70;56.50;;;;;;5128204;23;20359;-48
2023/03/07 11:08:35;;;;;;;3.70;1.77;;;23.60;55.90;;;;;;5134906;23;20310;-48
2023/03/07 11:10:59;;;;;;;3.42;1.80;;;23.50;55.70;;;;;;5127843;23;20402;-45
2023/03/07 11:13:23;;;;;;;2.45;1.65;;;23.50;55.70;;;;;;5138109;23;20013;-48
2023/03/07 11:15:46;;;;;;;2.53;1.63;;;23.40;56.00;;;;;;5140278;23;20019;-46
2023/03/07 11:18:26;;;;;;;3.30;1.55;;;23.50;57.00;;;;;;5136387;23;20023;-46
2023/03/07 11:20:50;;;;;;;5.05;2.53;;;23.50;56.90;;;;;;5138932;23;20478;-46
2023/03/07 11:23:17;;;;;;;3.20;1.80;;;23.60;58.60;;;;;;5139416;23;20291;-48
2023/03/07 11:25:39;;;;;;;3.17;1.80;;;23.60;57.50;;;;;;5139051;23;20027;-48
2023/03/07 11:28:02;;;;;;;2.72;1.67;;;23.50;56.90;;;;;;5138543;23;20035;-47
2023/03/07 11:30:33;;;;;;;2.88;1.42;;;23.40;56.60;;;;;;5140652;23;20027;-51
2023/03/07 11:33:15;;;;;;;3.15;1.67;;;23.40;57.00;;;;;;5129396;23;20359;-48
2023/03/07 11:35:53;;;;;;;3.05;1.83;;;23.40;57.40;;;;;;5125139;23;20023;-47
2023/03/07 11:38:34;;;;;;;2.95;1.60;;;23.60;58.00;;;;;;5137906;23;20023;-49
2023/03/07 11:41:03;;;;;;;3.30;2.00;;;23.70;58.80;;;;;;5139606;23;20035;-48
2023/03/07 11:43:42;;;;;;;4.35;1.75;;;23.60;58.40;;;;;;5139931;23;20060;-49
2023/03/07 11:46:17;;;;;;;5.38;1.83;;;23.70;60.40;;;;;;5131901;23;20020;-46
2023/03/07 11:49:00;;;;;;;3.38;1.83;;;23.90;61.20;;;;;;5138474;23;20446;-47
2023/03/07 11:51:47;;;;;;;5.25;2.20;;;24.00;61.40;;;;;;5139676;23;20071;-51
2023/03/07 11:54:26;;;;;;;7.35;1.73;;;24.20;61.40;;;;;;5129593;23;20047;-43
2023/03/07 11:56:54;;;;;;;4.63;1.80;;;24.40;60.80;;;;;;5136145;23;20069;-45
2023/03/07 11:59:49;;;;;;;5.15;2.00;;;24.40;60.70;;;;;;5138977;23;20359;-42
2023/03/07 12:02:29;;;;;;;;;;;24.40;60.60;;;;;;5139800;23;20024;-45
2023/03/07 12:05:12;;;;;;;14.40;2.58;;;24.50;60.60;;;;;;5143150;23;19930;-42
2023/03/07 12:07:37;;;;;;;42.47;3.35;;;24.60;60.80;;;;;;5143984;23;20016;-47
2023/03/07 12:10:47;;;;;;;11.32;2.08;;;24.60;60.70;;;;;;5144007;23;20024;-49
2023/03/07 12:13:39;;;;;;;6.50;1.58;;;24.60;60.80;;;;;;5042117;23;20023;-47
2023/03/07 12:16:12;;;;;;;4.78;1.80;;;24.70;63.00;;;;;;5044908;23;20022;-49
2023/03/07 12:19:10;;;;;;;3.75;1.80;;;24.80;68.00;;;;;;5122486;23;20016;-44
2023/03/07 12:21:58;;;;;;;4.80;1.92;;;24.80;68.30;;;;;;5133777;23;20074;-44
2023/03/07 12:24:32;;;;;;;8.50;1.90;;;24.70;64.20;;;;;;5137228;23;20020;-45
2023/03/07 12:27:09;;;;;;;15.45;2.20;;;24.50;62.20;;;;;;5136661;23;20017;-47
2023/03/07 12:29:39;;;;;;;4.82;1.73;;;24.40;62.40;;;;;;5143895;23;20353;-49
2023/03/07 12:32:06;;;;;;;4.45;1.85;;;24.50;62.70;;;;;;5144556;23;20017;-46
2023/03/07 12:34:55;;;;;;;5.78;2.03;;;24.60;62.80;;;;;;5145664;23;20354;-48
2023/03/07 12:37:46;;;;;;;6.95;2.72;;;24.70;62.90;;;;;;5144328;23;20012;-46
2023/03/07 12:40:14;;;;;;;5.88;1.67;;;24.80;63.00;;;;;;5098667;23;20120;-47